El tiempo en EUROPA

Avatar de Usuario
meteoro
Mensajes: 4081
Registrado: Jue Ene 07, 2010 8:53 pm
Ubicación: San Telmo - CABA
Contactar:

El tiempo en EUROPA

Mensajepor meteoro » Vie May 28, 2010 9:19 pm

Bueno, en algún lugar tengo que meter esta información, porque es muy interesante.
Fuente: http://www.usda.gov/oce/weather/pubs/We ... b/wwcb.pdf
Weekly Weather and Crop Bulletin, USDA

Estoy seguro que en Polonia hay radares, porque de hecho los proveedores de radares del INTA (alemanes) también vendieron algunos en Polonia. Fijense en la web si encuentran algo.

El patrón es muy húmedo hace rato en el Centro-Este de Europa, de hecho no se si vieron el "Giro di Italia" en la tele, tuvo unos cuantos días bajo la lluvia (un garrón para andar en bici) y en Polonia y algunas partes de Hungría hay desbordes de los ríos. Es más o menos normal que llueva en primavera sobre Europa, este año con un patrón LLUVIAS AL ESTE, SECO AL OESTE, aparentemente. De paso podemos hacer un seguimiento de "El tiempo en Rolland Garros" ya que no quedó ningún argentino jugando.

Stormy weather in eastern Europe contrasted with mostly dry,
sunny conditions in western growing areas. A slow-moving
storm system triggered torrential rainfall (25-200 mm, locally
more) from north-central Poland southward into northern and
western portions of the Balkans, halting summer crop planting
and causing widespread flooding. Numerous reports of severe
weather were also noted in this region, with large hail, gusty
winds, and isolated tornadoes causing localized damage to
crops and infrastructure.
Hardest hit was southern Poland,
where some replanting of low-lying fields may become
necessary once producers are able to assess the extent of the
storm damage. Father from the storm’s center, showers were
lighter (5-35 mm), albeit still beneficial, for jointing to
reproductive winter crops and emerging to vegetative corn
and sunflowers in Germany, Italy, and Bulgaria. In contrast,
mostly dry weather (less than 5 mm of rain) from
northwestern Germany to the Atlantic Coast, reduced soil
moisture for jointing to reproductive winter grains and
oilseeds, particularly in northern France. Temperatures
averaged 1 to 4 degrees C below normal over much of the
continent, slowing crop emergence and development.
However, freezes were more isolated than last week, with
nighttime readings at or below 0 degrees C confined to
northern England.

Avatar de Usuario
meteoro
Mensajes: 4081
Registrado: Jue Ene 07, 2010 8:53 pm
Ubicación: San Telmo - CABA
Contactar:

LLUVIAS COPIOSAS

Mensajepor meteoro » Mié Jun 09, 2010 7:44 pm

Mucha lluvia en ESPAÑA, FRANCIA, ALEMANIA, ALPES y otros lugares del CENTRO-OESTE DEL CONTINENTE
Por lo visto se CLAVA una BAJA PRESIÓN allí (en todos los niveles), otra al Este, en TURQUÍA y entre medio de AMBAS UNA CUÑA EN ITALIA, que viene a ser una extensión de la CUÑA EN ARGELIA, que dejó hoy algunas de las temperaturas más altas del mundo.

El mapa de riesgo lo pueden ver en http://www.meteoalarm.eu/ con sus respectivos indicadores.

europa 2.png
Adjuntos
europa.gif

Avatar de Usuario
meteoro
Mensajes: 4081
Registrado: Jue Ene 07, 2010 8:53 pm
Ubicación: San Telmo - CABA
Contactar:

Re: El tiempo en EUROPA

Mensajepor meteoro » Mar Jun 15, 2010 1:37 pm

GRAN TORMENTA EN BULGARIA
Sofía, la capital
SPECI LBSF 151521Z 15014G19MPS 0300 R09/1000VP1500D R27/0300V0900D +TSRA VV001 20/19 Q1018 NOSIG=

NIEBLAS EN EL NORTE DE ITALIA
Turín
METAR LIMK 151455Z 36009KT 0100 -RA FG VV/// 14/14 Q1015 RMK VAL INVIS VIS MIN 0100=

CALOR EN EL CENTRO-NORTE DE ARGELIA (ojo, esto es Africa)
METAR DAUH 151530Z 27026KT 8000 NSC 39/05 Q1008=

FRIO Y SECO EN LONDRES
METAR EGKK 151520Z 07010KT 9999 FEW040 15/07 Q1027=

LLUVIAS EN FRANCIA (Lyon)
METAR LFLL 151500Z 35003KT 9999 RA BKN008 18/16 Q1012 NOSIG=

Todo eso en la tarde del martes. La masa de aire fresco y húmedo domina medio continente, a la vez que empiezan a activarse grandes tormentas en el Este del continente.
Un anticiclon cerca de IRLANDA favorece el buen tiempo en GRAN BRETAÑA y mantiene el ingreso de aire frío sobre la península Ibérica, el cual llega a Marruecos, pero no logra CRUZAR LOS ATLAS, una barrera importante sin duda. La baja en altura está hoy en el SW de Francia, pero en superficie se ve desdibujada. La circulación evoluciona muy lenta en los próximos días, con mucha lluvia en el Centro de Europa, calor en el Sur de RUSIA, TORMENTAS EN BULGARIA Y alrededores y
NIEVE en los ALPES.

Definitivamente no entiendo como funcionan las cosas en Europa....Está todo al revés (HN), la costa está recortada por todos lados, las montañas están por todos lados y en direcciones direrentes. En fin, un quil...%$·&
Adjuntos
Europa hoy.gif

Avatar de Usuario
meteoro
Mensajes: 4081
Registrado: Jue Ene 07, 2010 8:53 pm
Ubicación: San Telmo - CABA
Contactar:

Diluvios de FRANCIA

Mensajepor meteoro » Mié Jun 16, 2010 7:54 am

Datos erróneos??

francia.JPG


Parece que no.
SUR DE FRANCIA, CERCA DE NIZA
Vean esto (en francés, claro):
http://www.lemonde.fr/planete/article/2 ... _3244.html

Onze personnes sont mortes dans le Var et douze autres sont portées disparues, à la suite de pluies torrentielles exceptionnelles pour la saison qui ont inondé mardi plusieurs communes dont Draguignan, envahie par des torrents d'eau boueuse. Six personnes sont mortes à Draguignan, trois à Trans-en-Provence, une au Luc et une à Roquebrune.
Les communes les plus touchées par les intempéries ont été Draguignan, Les Arcs et Figanières, Roquebrune, Trans et Draguignan. "Le temps est à l'amélioration", indique la préfecture, "les pluies régressent et ne concernent plus que le Var sur sa partie au nord de l'Argens, avec des intensités horaires de l'ordre de 1 à 5 mm/h". Les pluies devraient évacuer complètement le département d'ici une heure ou deux.

"Ce matin, nous avons retrouvé un cœur de ville dévasté, extrêmement abîmé, avec des carcasses de voitures dans les rues, des routes effondrées, des maisons éventrées, des dégâts aux infrastructures", a décrit la sous-préfète de Draguignan, Corinne Orzechowski. Elle a précisé que neuf hélicoptères et quinze bateaux étaient en intervention, qui ont aidé à mettre au sec 1 200 personnes dans les centres de secours de Draguignan. "Nous attendons des renforts des forces de sécurité intérieure", a-t-elle ajouté.

Météo France a annoncé mercredi matin la levée de la vigilance orange pour la Drôme, la région PACA et la Corse, où "les pluies ont bien baissé d'intensité". "Les pluies ont été particulièrement abondantes sur le Var : depuis le début de l'épisode, les cumuls atteignent souvent 150 à 250 mm sur une partie centrale, dépassant localement 380 mm", indique Météo France.
Adjuntos
francia 3.JPG
francia 2.jpg

Avatar de Usuario
diego45
Mensajes: 2393
Registrado: Mié Jul 22, 2009 11:53 pm
Ubicación: Avellaneda, Argentina
Contactar:

Re: El tiempo en EUROPA

Mensajepor diego45 » Mié Jun 16, 2010 10:27 am

Tremenda la info que nos traes :D Antes que en los noticieros!
Diego

Avatar de Usuario
meteoro
Mensajes: 4081
Registrado: Jue Ene 07, 2010 8:53 pm
Ubicación: San Telmo - CABA
Contactar:

Re: El tiempo en EUROPA

Mensajepor meteoro » Vie Jun 18, 2010 1:44 pm

España y Francia azotadas por fuertes temporales
Más datos en castellano....

París.- El temporal que afectó el sureste de Francia ha causado ya al menos 20 muertos, según los últimos balances divulgados por las autoridades, que dan cuenta de centenares de personas damnificadas y graves daños.

Las lluvias torrenciales que inundaron varias localidades del departamento de Var provocaron once muertes en una de ellas, Draguignan, aunque todavía no se conocen las cifras definitivas de personas fallecidas por el temporal, citó Efe.

La mayoría de los muertos son ancianos que no pudieron hacer frente a las consecuencias de las lluvias torrenciales, causadas por la conjunción de fenómenos meteorológicos relativamente frecuentes en esa zona próxima a la costa mediterránea francesa, aunque no de la intensidad de esta ocasión.

Más de 1.000 personas encontraron refugio en escuelas y otros edificios luego de que sus casas fueran inundadas. Helicópteros realizaron 450 misiones de rescate y 100.000 casas están sin electricidad.

Imágenes de televisión mostraban multitudes de personas varadas en la terraza elevada de un campamento de vacaciones, con los terrenos y edificios bajos de los alrededores sumergidos en el lodo.

Inundaciones en el norte

En España efectivos de la Cruz Roja tuvieron que rescatar con lanchas y buzos a once personas que estaban atrapadas en viviendas y naves de Caranceja, un pueblo de Cantabria, inundado por el desbordamiento del río Saja.

Fuentes del Servicio de Protección Civil del Gobierno regional informaron que otras personas tuvieron que permanecer en sus casas porque el rescate resultaba peligroso.

Avatar de Usuario
meteoro
Mensajes: 4081
Registrado: Jue Ene 07, 2010 8:53 pm
Ubicación: San Telmo - CABA
Contactar:

Aire polar en JUNIO

Mensajepor meteoro » Vie Jun 18, 2010 2:07 pm

Para no ser menos que ARG y que SUDÁFRICA, Francia también se prepara para una irrupción de aire polar, pero en VERANO. Miren lo que es este FRENTE FRÍO, que está en el SUR DE INGLATERRA, PAISES BAJOS, DINAMARCA.... como queriendo avanzar derecho para FRANCIA.

Les dejo algunos METAR ACTUALES, no se olviden que son las 4 de la tarde y estamos en JUNIO.

AMSTERDAM (Paises Bajos) METAR EHAM 181625Z 34012KT 310V010 9999 FEW024 14/08 Q1016 NOSIG=
COPENAGHE (Dinamarca) METAR EKRK 181620Z AUTO 29018KT 9999NDV FEW039/// BKN047/// 15/07 Q1003=
HAMBURGO (Norte de Alemania) METAR EDDH 181620Z 30015KT 9999 FEW032 BKN036 13/07 Q1009 NOSIG=

Este chorro de AIRE FRIO se va a mover derecho NORTE-SUR, atravesando FRANCIA y el pasadizo que hay entre los ALPES y los PIRINEOS, llegando al Mediterráneo y hasta TUNEZ, aunque algo modificado a esa altura (se llama viento Mistral). Temperaturas de 0ºC en 850 tendremos en el NORTE DE FRANCIA el domingo o lunes. Si mal no recuerdo, el mundial 98 arrancó también con tiempo frío y algo ventoso, así que estas cosas deben ser raras, pero no tanto.

http://wxmaps.org/pix/euro.48hr.html

Y siguen las tormentas en el ESTE DE EUROPA, ahora le están pegando a la ex-YUGOSLAVIA, RUMANIA, BULGARIA, ETC.
Adjuntos
Europa 18 jun.gif

Avatar de Usuario
meteoro
Mensajes: 4081
Registrado: Jue Ene 07, 2010 8:53 pm
Ubicación: San Telmo - CABA
Contactar:

Re: El tiempo en EUROPA

Mensajepor meteoro » Vie Jun 18, 2010 2:32 pm

y HUNGRIA......

Aviso para Hungria (nivel ROJO): Widespread severe thunderstorms can be expected accompanied by very high wind (gusts above 90 km/h) or large hail (above 2 cm).

hungria.gif
hungria.gif (7.24 KiB) Visto 1826 veces


Lindo Hungría, bastante llano. Atravesada por el río DANUBIO, que de hecho divide a las antiguas ciudades de BUDA y de PEST (al estilo Santiago del Estero y La Banda, pero en primer mundo) ahora BUDAPEST, la capital.
Adjuntos
hungria 2.jpg

Avatar de Usuario
meteoro
Mensajes: 4081
Registrado: Jue Ene 07, 2010 8:53 pm
Ubicación: San Telmo - CABA
Contactar:

Re: El tiempo en EUROPA

Mensajepor meteoro » Vie Jun 18, 2010 3:00 pm

Servicio Meteorologico Hungaro

http://www.met.hu/omsz.php

Hungaro para todos:

radar = radar

egkep = webcams
http://www.met.hu/kepek/egkep/
Lindo atardecer

muhold terkep = imagen satelital.

está bueno el sitio, para explorar

Avatar de Usuario
diego45
Mensajes: 2393
Registrado: Mié Jul 22, 2009 11:53 pm
Ubicación: Avellaneda, Argentina
Contactar:

Re: El tiempo en EUROPA

Mensajepor diego45 » Vie Jun 18, 2010 3:20 pm

meteoro escribió:Hungaro para todos:
radar = radar

:lol: :lol: :lol:

Imagen
Diego


Volver a “Seguimiento Internacional”

¿Quién está conectado?

Usuarios navegando por este Foro: No hay usuarios registrados visitando el Foro y 1 invitado